createdAt,value
2023-03-11T00:00:53.776Z,820
2023-03-11T00:02:07.424Z,816
2023-03-11T00:03:10.379Z,817
2023-03-11T00:04:24.485Z,814
2023-03-11T00:05:27.439Z,816
2023-03-11T00:06:41.421Z,814
2023-03-11T00:07:54.275Z,813
2023-03-11T00:09:07.912Z,812
2023-03-11T00:10:10.819Z,812
2023-03-11T00:11:24.446Z,812
2023-03-11T00:12:37.255Z,811
2023-03-11T00:13:40.943Z,811
2023-03-11T00:14:53.760Z,812
2023-03-11T00:16:07.462Z,809
2023-03-11T00:17:10.304Z,808
2023-03-11T00:18:24.451Z,807
2023-03-11T00:19:37.278Z,808
2023-03-11T00:20:40.888Z,806
2023-03-11T00:21:53.727Z,806
2023-03-11T00:23:07.537Z,806
2023-03-11T00:24:10.693Z,803
2023-03-11T00:25:24.439Z,802
2023-03-11T00:26:37.356Z,805
2023-03-11T00:28:01.024Z,806
2023-03-11T00:28:54.134Z,806
2023-03-11T00:30:07.973Z,806
2023-03-11T00:31:10.916Z,807
2023-03-11T00:32:24.530Z,808
2023-03-11T00:33:37.528Z,810
2023-03-11T00:34:51.435Z,810
2023-03-11T00:35:54.356Z,808
2023-03-11T00:37:07.951Z,809
2023-03-11T00:38:20.783Z,807
2023-03-11T00:39:24.621Z,807
2023-03-11T00:40:37.560Z,808
2023-03-11T00:41:51.575Z,809
2023-03-11T00:42:54.714Z,808
2023-03-11T00:44:08.398Z,808
2023-03-11T00:45:21.300Z,808
2023-03-11T00:46:25.035Z,806
2023-03-11T00:48:57.358Z,802
2023-03-11T00:50:00.209Z,804
2023-03-11T00:51:13.954Z,806
2023-03-11T00:52:16.864Z,806
2023-03-11T00:53:30.486Z,807
2023-03-11T00:54:43.260Z,807
2023-03-11T00:55:46.944Z,808
2023-03-11T00:56:59.767Z,805
2023-03-11T00:58:13.513Z,804
2023-03-11T00:59:16.491Z,803
2023-03-11T01:00:29.956Z,802
2023-03-11T01:01:42.890Z,803
2023-03-11T01:02:56.498Z,802
2023-03-11T01:03:59.319Z,801
2023-03-11T01:05:12.988Z,803
2023-03-11T01:06:44.682Z,802
2023-03-11T01:07:28.973Z,804
2023-03-11T01:08:41.794Z,805
2023-03-11T01:09:55.465Z,806
2023-03-11T01:10:58.303Z,804
2023-03-11T01:12:11.967Z,800
2023-03-11T01:13:25.420Z,801
2023-03-11T01:14:28.994Z,802
2023-03-11T01:15:41.814Z,801
2023-03-11T01:16:55.467Z,799
2023-03-11T01:18:08.270Z,800
2023-03-11T01:19:11.999Z,801
2023-03-11T01:20:24.818Z,800
2023-03-11T01:21:38.468Z,801
2023-03-11T01:22:41.307Z,803
2023-03-11T01:23:54.959Z,805
2023-03-11T01:25:08.080Z,805
2023-03-11T01:26:11.458Z,804
2023-03-11T01:27:24.331Z,805
2023-03-11T01:28:38.004Z,807
2023-03-11T01:29:40.828Z,810
2023-03-11T01:30:54.518Z,811
2023-03-11T01:32:07.405Z,813
2023-03-11T01:33:20.985Z,813
2023-03-11T01:34:24.957Z,814
2023-03-11T01:35:38.527Z,815
2023-03-11T01:36:51.380Z,811
2023-03-11T01:37:54.985Z,810
2023-03-11T01:39:07.795Z,811
2023-03-11T01:40:21.552Z,811
2023-03-11T01:41:24.551Z,810
2023-03-11T01:42:37.965Z,809
2023-03-11T01:43:50.786Z,808
2023-03-11T01:44:54.492Z,808
2023-03-11T01:46:07.344Z,808
2023-03-11T01:47:20.985Z,809
2023-03-11T01:48:33.788Z,807
2023-03-11T01:49:37.491Z,807
2023-03-11T01:50:50.370Z,805
2023-03-11T01:52:03.971Z,804
2023-03-11T01:53:06.807Z,805
2023-03-11T01:54:20.488Z,805
2023-03-11T01:55:33.309Z,806
2023-03-11T01:56:36.991Z,805
2023-03-11T01:57:49.906Z,804
2023-03-11T01:59:03.492Z,801
2023-03-11T02:00:06.359Z,798
2023-03-11T02:01:20.114Z,799
2023-03-11T02:02:33.051Z,800
2023-03-11T02:03:46.989Z,798
2023-03-11T02:04:49.852Z,797
2023-03-11T02:06:03.477Z,800
2023-03-11T02:07:16.290Z,800
2023-03-11T02:08:19.977Z,798
2023-03-11T02:09:32.794Z,800
2023-03-11T02:11:06.980Z,798
2023-03-11T02:11:49.998Z,799
2023-03-11T02:13:02.818Z,801
2023-03-11T02:14:16.494Z,801
2023-03-11T02:15:19.364Z,801
2023-03-11T02:16:33.067Z,799
2023-03-11T02:17:45.959Z,800
2023-03-11T02:18:59.679Z,803
2023-03-11T02:20:02.539Z,803
2023-03-11T02:21:16.010Z,802
2023-03-11T02:22:28.858Z,801
2023-03-11T02:23:32.477Z,798
2023-03-11T02:24:45.295Z,798
2023-03-11T02:25:59.020Z,797
2023-03-11T02:27:01.865Z,797
2023-03-11T02:28:15.523Z,796
2023-03-11T02:29:28.349Z,798
2023-03-11T02:30:42.003Z,799
2023-03-11T02:31:45.879Z,798
2023-03-11T02:32:59.490Z,801
2023-03-11T02:34:22.321Z,798
2023-03-11T02:35:16.009Z,799
2023-03-11T02:36:28.839Z,800
2023-03-11T02:37:44.026Z,801
2023-03-11T02:38:46.884Z,799
2023-03-11T02:40:00.512Z,800
2023-03-11T02:41:13.337Z,798
2023-03-11T02:42:17.132Z,796
2023-03-11T02:43:29.977Z,796
2023-03-11T02:44:43.502Z,797
2023-03-11T02:45:46.377Z,797
2023-03-11T02:47:00.092Z,794
2023-03-11T02:48:13.024Z,792
2023-03-11T02:49:16.534Z,793
2023-03-11T02:50:29.402Z,792
2023-03-11T02:51:43.014Z,790
2023-03-11T02:52:45.878Z,791
2023-03-11T02:53:59.520Z,794
2023-03-11T02:55:12.348Z,794
2023-03-11T02:56:26.049Z,793
2023-03-11T02:57:28.908Z,793
2023-03-11T02:58:42.516Z,793
2023-03-11T02:59:55.410Z,793
2023-03-11T03:00:59.029Z,791
2023-03-11T03:02:11.962Z,793
2023-03-11T03:03:26.991Z,794
2023-03-11T03:04:29.917Z,793
2023-03-11T03:05:43.517Z,793
2023-03-11T03:07:06.244Z,793
2023-03-11T03:08:00.011Z,793
2023-03-11T03:09:12.850Z,792
2023-03-11T03:10:26.514Z,793
2023-03-11T03:11:29.369Z,794
2023-03-11T03:12:43.004Z,796
2023-03-11T03:13:55.850Z,795
2023-03-11T03:15:09.549Z,794
2023-03-11T03:16:12.477Z,791
2023-03-11T03:17:26.611Z,793
2023-03-11T03:18:39.582Z,792
2023-03-11T03:19:43.498Z,792
2023-03-11T03:20:56.363Z,794
2023-03-11T03:22:10.036Z,795
2023-03-11T03:23:13.003Z,797
2023-03-11T03:24:26.537Z,799
2023-03-11T03:25:39.472Z,797
2023-03-11T03:26:43.051Z,797
2023-03-11T03:27:56.009Z,794
2023-03-11T03:29:09.507Z,794
2023-03-11T03:30:22.344Z,793
2023-03-11T03:32:53.453Z,793
2023-03-11T03:33:46.498Z,794
2023-03-11T03:35:00.010Z,794
2023-03-11T03:36:12.913Z,795
2023-03-11T03:37:16.516Z,795
2023-03-11T03:38:29.496Z,793
2023-03-11T03:39:43.001Z,792
2023-03-11T03:40:45.886Z,793
2023-03-11T03:41:59.624Z,794
2023-03-11T03:43:12.476Z,794
2023-03-11T03:44:16.028Z,794
2023-03-11T03:45:28.851Z,795
2023-03-11T03:46:42.503Z,797
2023-03-11T03:47:55.342Z,795
2023-03-11T03:48:59.003Z,794
2023-03-11T03:50:21.743Z,794
2023-03-11T03:51:25.498Z,795
2023-03-11T03:52:28.297Z,794
2023-03-11T03:53:42.007Z,796
2023-03-11T03:54:54.841Z,795
2023-03-11T03:55:58.581Z,795
2023-03-11T03:57:11.448Z,796
2023-03-11T03:58:25.010Z,798
2023-03-11T03:59:37.864Z,796
2023-03-11T04:00:41.548Z,796
2023-03-11T04:01:54.465Z,795
2023-03-11T04:03:08.024Z,795
2023-03-11T04:04:11.001Z,795
2023-03-11T04:05:24.487Z,796
2023-03-11T04:06:37.331Z,797
2023-03-11T04:07:41.035Z,798
2023-03-11T04:08:53.946Z,799
2023-03-11T04:10:07.530Z,799
2023-03-11T04:11:10.564Z,796
2023-03-11T04:12:24.008Z,798
2023-03-11T04:13:36.843Z,800
2023-03-11T04:14:50.545Z,799
2023-03-11T04:15:53.492Z,800
2023-03-11T04:17:07.154Z,799
2023-03-11T04:18:20.111Z,795
2023-03-11T04:19:23.736Z,796
2023-03-11T04:20:36.574Z,796
2023-03-11T04:21:50.032Z,795
2023-03-11T04:22:52.884Z,796
2023-03-11T04:24:06.523Z,795
2023-03-11T04:25:19.384Z,794
2023-03-11T04:26:33.509Z,792
2023-03-11T04:27:36.377Z,792
2023-03-11T04:28:50.113Z,791
2023-03-11T04:30:02.970Z,789
2023-03-11T04:31:06.651Z,788
2023-03-11T04:32:19.653Z,788
2023-03-11T04:33:35.011Z,786
2023-03-11T04:34:37.896Z,783
2023-03-11T04:35:51.533Z,784
2023-03-11T04:37:04.515Z,782
2023-03-11T04:38:08.018Z,780
2023-03-11T04:39:20.889Z,780
2023-03-11T04:40:34.528Z,781
2023-03-11T04:41:37.437Z,783
2023-03-11T04:42:51.024Z,783
2023-03-11T04:44:03.894Z,782
2023-03-11T04:45:08.902Z,785
2023-03-11T04:46:21.785Z,787
2023-03-11T04:47:35.521Z,787
2023-03-11T04:48:38.394Z,785
2023-03-11T04:49:52.035Z,785
2023-03-11T04:51:04.863Z,785
2023-03-11T04:52:08.512Z,784
2023-03-11T04:53:21.348Z,784
2023-03-11T04:54:35.012Z,786
2023-03-11T04:55:57.755Z,785
2023-03-11T04:56:51.513Z,785
2023-03-11T04:58:04.844Z,785
2023-03-11T04:59:18.841Z,779
2023-03-11T05:00:21.891Z,780
2023-03-11T05:01:35.623Z,781
2023-03-11T05:02:48.604Z,779
2023-03-11T05:03:52.557Z,780
2023-03-11T05:05:05.416Z,777
2023-03-11T05:06:19.021Z,775
2023-03-11T05:07:21.890Z,772
2023-03-11T05:08:35.521Z,774
2023-03-11T05:09:48.541Z,771
2023-03-11T05:10:52.021Z,770
2023-03-11T05:12:04.893Z,772
2023-03-11T05:13:18.564Z,774
2023-03-11T05:14:31.408Z,773
2023-03-11T05:15:35.026Z,776
2023-03-11T05:16:47.868Z,776
2023-03-11T05:18:01.513Z,776
2023-03-11T05:19:04.391Z,774
2023-03-11T05:20:18.089Z,773
2023-03-11T05:21:30.954Z,772
2023-03-11T05:22:34.601Z,771
2023-03-11T05:23:47.449Z,770
2023-03-11T05:25:01.045Z,775
2023-03-11T05:26:03.939Z,777
2023-03-11T05:27:17.563Z,779
2023-03-11T05:28:30.422Z,779
2023-03-11T05:29:44.034Z,778
2023-03-11T05:30:47.105Z,781
2023-03-11T05:32:01.041Z,779
2023-03-11T05:33:13.900Z,777
2023-03-11T05:34:17.563Z,777
2023-03-11T05:35:30.492Z,778
2023-03-11T05:36:44.041Z,779
2023-03-11T05:37:46.954Z,780
2023-03-11T05:39:00.583Z,779
2023-03-11T05:40:13.442Z,779
2023-03-11T05:41:17.043Z,777
2023-03-11T05:42:29.923Z,776
2023-03-11T05:43:43.544Z,775
2023-03-11T05:44:46.422Z,774
2023-03-11T05:46:00.053Z,776
2023-03-11T05:47:12.964Z,779
2023-03-11T05:48:26.580Z,784
2023-03-11T05:49:29.488Z,789
2023-03-11T05:50:43.064Z,788
2023-03-11T05:51:58.527Z,788
2023-03-11T05:53:02.570Z,794
2023-03-11T05:54:15.441Z,800
2023-03-11T05:55:19.074Z,807
2023-03-11T05:56:31.930Z,815
2023-03-11T05:57:45.544Z,815
2023-03-11T05:58:48.482Z,825
2023-03-11T06:00:02.086Z,831
2023-03-11T06:01:14.958Z,836
2023-03-11T06:02:18.582Z,842
2023-03-11T06:03:32.913Z,847
2023-03-11T06:04:46.749Z,851
2023-03-11T06:05:49.673Z,856
2023-03-11T06:07:03.073Z,866
2023-03-11T06:08:15.819Z,877
2023-03-11T06:09:29.575Z,892
2023-03-11T06:10:32.335Z,901
2023-03-11T06:11:45.581Z,911
2023-03-11T06:12:58.308Z,922
2023-03-11T06:14:01.559Z,927
2023-03-11T06:15:14.191Z,935
2023-03-11T06:16:27.632Z,946
2023-03-11T06:17:30.666Z,952
2023-03-11T06:18:44.060Z,959
2023-03-11T06:19:56.657Z,970
2023-03-11T06:21:10.047Z,983
2023-03-11T06:22:12.726Z,996
2023-03-11T06:23:26.589Z,1003
2023-03-11T06:24:39.242Z,1014
2023-03-11T06:25:42.586Z,1012
2023-03-11T06:26:55.155Z,1017
2023-03-11T06:28:18.590Z,1023
2023-03-11T06:29:11.293Z,1037
2023-03-11T06:30:24.557Z,1046
2023-03-11T06:31:37.205Z,1068
2023-03-11T06:32:50.580Z,1137
2023-03-11T06:33:54.626Z,1150
2023-03-11T06:35:08.085Z,1159
2023-03-11T06:36:20.647Z,1169
2023-03-11T06:37:24.072Z,1170
2023-03-11T06:38:37.419Z,1180
2023-03-11T06:39:51.071Z,1192
2023-03-11T06:40:53.690Z,1206
2023-03-11T06:42:07.069Z,1224
2023-03-11T06:43:19.493Z,1241
2023-03-11T06:44:23.085Z,1256
2023-03-11T06:45:35.695Z,1264
2023-03-11T06:46:49.112Z,1274
2023-03-11T06:47:51.684Z,1284
2023-03-11T06:49:05.051Z,1287
2023-03-11T06:50:17.712Z,1299
2023-03-11T06:51:31.091Z,1300
2023-03-11T06:52:33.670Z,1308
2023-03-11T06:53:47.075Z,1317
2023-03-11T06:54:59.559Z,1320
2023-03-11T06:56:03.091Z,1329
2023-03-11T06:57:15.604Z,1350
2023-03-11T06:58:29.194Z,1376
2023-03-11T06:59:31.873Z,1427
2023-03-11T07:00:45.125Z,1445
2023-03-11T07:01:57.639Z,1464
2023-03-11T07:03:11.108Z,1473
2023-03-11T07:04:13.708Z,1478
2023-03-11T07:05:27.076Z,1484
2023-03-11T07:06:39.564Z,1495
2023-03-11T07:07:43.085Z,1506
2023-03-11T07:08:55.558Z,1519
2023-03-11T07:10:09.076Z,1536
2023-03-11T07:11:11.656Z,1558
2023-03-11T07:12:25.082Z,1565
2023-03-11T07:13:37.547Z,1578
2023-03-11T07:14:41.077Z,1583
2023-03-11T07:15:53.538Z,1594
2023-03-11T07:17:06.600Z,1603
2023-03-11T07:18:19.067Z,1610
2023-03-11T07:19:22.620Z,1613
2023-03-11T07:20:35.062Z,1620
2023-03-11T07:21:48.112Z,1622
2023-03-11T07:22:50.697Z,1626
2023-03-11T07:24:04.089Z,1626
2023-03-11T07:25:16.522Z,1617
2023-03-11T07:26:29.615Z,1604
2023-03-11T07:27:32.113Z,1579
2023-03-11T07:28:45.592Z,1510
2023-03-11T07:29:57.892Z,1463
2023-03-11T07:31:06.513Z,1420
2023-03-11T07:32:19.142Z,1374
2023-03-11T07:33:22.606Z,1283
2023-03-11T07:34:35.048Z,1226
2023-03-11T07:35:48.608Z,1193
2023-03-11T07:36:51.289Z,1184
2023-03-11T07:38:04.621Z,1163
2023-03-11T07:39:17.617Z,1166
2023-03-11T07:40:21.252Z,1162
2023-03-11T07:41:33.810Z,1159
2023-03-11T07:42:47.108Z,1158
2023-03-11T07:43:59.542Z,1153
2023-03-11T07:45:03.102Z,1150
2023-03-11T07:46:15.584Z,1145
2023-03-11T07:47:29.131Z,1142
2023-03-11T07:48:31.708Z,1138
2023-03-11T07:49:45.096Z,1136
2023-03-11T07:50:57.542Z,1136
2023-03-11T07:52:10.621Z,1133
2023-03-11T07:53:13.191Z,1133
2023-03-11T07:54:26.633Z,1124
2023-03-11T07:55:39.068Z,1120
2023-03-11T07:56:42.634Z,1120
2023-03-11T07:57:55.047Z,1118
2023-03-11T07:59:08.084Z,1117
2023-03-11T08:00:20.526Z,1113
2023-03-11T08:01:24.120Z,1111
2023-03-11T08:02:36.560Z,1109
2023-03-11T08:03:50.255Z,1109
2023-03-11T08:04:52.992Z,1105
2023-03-11T08:06:06.599Z,1104
2023-03-11T08:07:19.000Z,1103
2023-03-11T08:08:32.116Z,1102
2023-03-11T08:09:34.615Z,1103
2023-03-11T08:10:47.625Z,1102
2023-03-11T08:12:00.058Z,1102
2023-03-11T08:13:03.093Z,1105
2023-03-11T08:14:15.503Z,1107
2023-03-11T08:15:28.630Z,1109
2023-03-11T08:16:41.060Z,1109
2023-03-11T08:17:44.632Z,1112
2023-03-11T08:18:57.003Z,1112
2023-03-11T08:20:10.099Z,1112
2023-03-11T08:21:12.685Z,1112
2023-03-11T08:22:26.119Z,1114
2023-03-11T08:23:38.505Z,1118
2023-03-11T08:24:51.590Z,1119
2023-03-11T08:25:54.044Z,1120
2023-03-11T08:27:07.127Z,1122
2023-03-11T08:28:19.569Z,1123
2023-03-11T08:29:32.597Z,1124
2023-03-11T08:30:35.049Z,1126
2023-03-11T08:31:48.120Z,1130
2023-03-11T08:33:00.478Z,1131
2023-03-11T08:34:04.248Z,1133
2023-03-11T08:35:16.896Z,1136
2023-03-11T08:36:31.603Z,1140
2023-03-11T08:37:34.042Z,1143
2023-03-11T08:38:47.238Z,1147
2023-03-11T08:39:59.693Z,1151
2023-03-11T08:41:12.634Z,1156
2023-03-11T08:42:15.159Z,1161
2023-03-11T08:43:28.106Z,1166
2023-03-11T08:44:40.645Z,1175
2023-03-11T08:45:44.099Z,1180
2023-03-11T08:46:56.627Z,1186
2023-03-11T08:48:09.626Z,1198
2023-03-11T08:49:21.936Z,1202
2023-03-11T08:50:25.142Z,1207
2023-03-11T08:51:37.481Z,1212
2023-03-11T08:52:50.630Z,1217
2023-03-11T08:53:53.038Z,1220
2023-03-11T08:55:06.116Z,1226
2023-03-11T08:56:18.507Z,1229
2023-03-11T08:57:31.626Z,1230
2023-03-11T08:58:34.049Z,1233
2023-03-11T08:59:47.117Z,1238
2023-03-11T09:00:59.413Z,1238
2023-03-11T09:02:02.620Z,1240
2023-03-11T09:03:14.907Z,1240
2023-03-11T09:04:28.121Z,1244
2023-03-11T09:05:40.465Z,1243
2023-03-11T09:06:57.374Z,1246
2023-03-11T09:07:59.829Z,1245
2023-03-11T09:09:03.456Z,1244
2023-03-11T09:10:15.717Z,1248
2023-03-11T09:11:28.985Z,1247
2023-03-11T09:12:41.304Z,1248
2023-03-11T09:13:44.479Z,1247
2023-03-11T09:14:56.907Z,1244
2023-03-11T09:16:10.078Z,1243
2023-03-11T09:17:16.905Z,1242
2023-03-11T09:18:29.998Z,1239
2023-03-11T09:19:32.376Z,1241
2023-03-11T09:20:45.488Z,1241
2023-03-11T09:21:57.787Z,1242
2023-03-11T09:23:11.004Z,1241
2023-03-11T09:24:13.372Z,1242
2023-03-11T09:25:26.491Z,1243
2023-03-11T09:26:38.741Z,1242
2023-03-11T09:27:42.004Z,1242
2023-03-11T09:28:54.300Z,1244
2023-03-11T09:30:07.502Z,1249
2023-03-11T09:31:19.810Z,1253
2023-03-11T09:32:23.035Z,1253
2023-03-11T09:33:37.007Z,1258
2023-03-11T09:34:50.119Z,1261
2023-03-11T09:35:52.509Z,1263
2023-03-11T09:37:05.501Z,1265
2023-03-11T09:38:17.738Z,1266
2023-03-11T09:39:21.001Z,1266
2023-03-11T09:40:33.245Z,1265
2023-03-11T09:41:57.472Z,1269
2023-03-11T09:42:50.794Z,1271
2023-03-11T09:44:04.495Z,1270
2023-03-11T09:45:16.719Z,1268
2023-03-11T09:46:20.033Z,1270
2023-03-11T09:47:32.342Z,1274
2023-03-11T09:48:45.493Z,1274
2023-03-11T09:49:57.736Z,1274
2023-03-11T09:51:00.996Z,1272
2023-03-11T09:52:13.250Z,1270
2023-03-11T09:53:26.521Z,1270
2023-03-11T09:54:29.099Z,1271
2023-03-11T09:55:42.036Z,1271
2023-03-11T09:56:54.313Z,1272
2023-03-11T09:58:07.494Z,1272
2023-03-11T09:59:09.947Z,1270
2023-03-11T10:00:23.114Z,1269
2023-03-11T10:01:35.430Z,1267
2023-03-11T10:02:38.608Z,1267
2023-03-11T10:03:50.980Z,1269
2023-03-11T10:05:04.039Z,1267
2023-03-11T10:06:06.335Z,1265
2023-03-11T10:07:19.503Z,1266
2023-03-11T10:08:31.859Z,1270
2023-03-11T10:09:45.037Z,1269
2023-03-11T10:10:47.366Z,1267
2023-03-11T10:12:00.613Z,1270
2023-03-11T10:13:12.820Z,1272
2023-03-11T10:14:16.002Z,1270
2023-03-11T10:15:28.219Z,1272
2023-03-11T10:16:41.090Z,1274
2023-03-11T10:17:53.454Z,1271
2023-03-11T10:18:56.529Z,1273
2023-03-11T10:20:08.735Z,1274
2023-03-11T10:21:23.294Z,1272
2023-03-11T10:22:26.866Z,1271
2023-03-11T10:23:40.004Z,1271
2023-03-11T10:24:52.243Z,1273
2023-03-11T10:25:55.517Z,1273
2023-03-11T10:27:07.727Z,1272
2023-03-11T10:28:20.524Z,1270
2023-03-11T10:29:22.947Z,1273
2023-03-11T10:30:35.993Z,1272
2023-03-11T10:31:48.230Z,1270
2023-03-11T10:33:01.543Z,1273
2023-03-11T10:34:03.841Z,1272
2023-03-11T10:35:16.995Z,1273
2023-03-11T10:36:29.217Z,1274
2023-03-11T10:37:46.533Z,1277
2023-03-11T10:38:50.998Z,1276
2023-03-11T10:39:54.040Z,1278
2023-03-11T10:41:06.254Z,1284
2023-03-11T10:42:19.012Z,1294
2023-03-11T10:43:21.366Z,1309
2023-03-11T10:44:34.514Z,1327
2023-03-11T10:45:46.699Z,1339
2023-03-11T10:46:59.534Z,1340
2023-03-11T10:48:02.059Z,1343
2023-03-11T10:49:15.030Z,1352
2023-03-11T10:50:27.250Z,1357
2023-03-11T10:51:30.519Z,1359
2023-03-11T10:52:42.714Z,1358
2023-03-11T10:53:56.053Z,1356
2023-03-11T10:54:58.362Z,1356
2023-03-11T10:56:11.508Z,1353
2023-03-11T10:57:23.692Z,1357
2023-03-11T10:58:37.009Z,1357
2023-03-11T10:59:39.320Z,1356
2023-03-11T11:00:52.505Z,1355
2023-03-11T11:02:04.663Z,1353
2023-03-11T11:03:17.520Z,1352
2023-03-11T11:04:19.864Z,1352
2023-03-11T11:05:33.021Z,1354
2023-03-11T11:06:45.220Z,1353
2023-03-11T11:07:48.023Z,1357
2023-03-11T11:09:00.158Z,1359
2023-03-11T11:10:13.056Z,1362
2023-03-11T11:11:25.237Z,1364
2023-03-11T11:12:28.534Z,1366
2023-03-11T11:13:40.711Z,1364
2023-03-11T11:14:53.570Z,1365
2023-03-11T11:16:05.687Z,1368
2023-03-11T11:17:08.527Z,1369
2023-03-11T11:18:20.740Z,1369
2023-03-11T11:19:33.523Z,1369
2023-03-11T11:20:45.635Z,1369
2023-03-11T11:21:48.518Z,1368
2023-03-11T11:23:00.692Z,1368
2023-03-11T11:24:13.546Z,1366
2023-03-11T11:25:15.967Z,1364
2023-03-11T11:26:29.049Z,1362
2023-03-11T11:27:41.204Z,1362
2023-03-11T11:28:54.053Z,1361
2023-03-11T11:29:56.279Z,1361
2023-03-11T11:31:09.064Z,1360
2023-03-11T11:32:21.515Z,1357
2023-03-11T11:33:34.515Z,1353
2023-03-11T11:34:36.816Z,1350
2023-03-11T11:35:49.564Z,1346
2023-03-11T11:37:03.026Z,1342
2023-03-11T11:38:06.023Z,1339
2023-03-11T11:39:18.157Z,1332
2023-03-11T11:40:31.103Z,1326
2023-03-11T11:41:43.231Z,1322
2023-03-11T11:42:46.074Z,1314
2023-03-11T11:43:58.226Z,1311
2023-03-11T11:45:11.058Z,1304
2023-03-11T11:46:13.342Z,1299
2023-03-11T11:47:26.548Z,1294
2023-03-11T11:48:38.661Z,1290
2023-03-11T11:49:51.532Z,1288
2023-03-11T11:50:53.723Z,1283
2023-03-11T11:52:06.526Z,1281
2023-03-11T11:53:18.646Z,1278
2023-03-11T11:54:31.532Z,1277
2023-03-11T11:55:34.989Z,1276
2023-03-11T11:56:48.034Z,1276
2023-03-11T11:58:00.402Z,1274
2023-03-11T11:59:03.524Z,1274
2023-03-11T12:02:53.775Z,1271
2023-03-11T12:03:46.098Z,1269
2023-03-11T12:04:58.883Z,1270
2023-03-11T12:06:00.965Z,1267
2023-03-11T12:07:13.895Z,1269
2023-03-11T12:08:25.906Z,1266
2023-03-11T12:09:38.982Z,1264
2023-03-11T12:10:41.156Z,1267
2023-03-11T12:11:53.901Z,1263
2023-03-11T12:13:06.072Z,1262
2023-03-11T12:14:18.920Z,1259
2023-03-11T12:15:21.223Z,1261
2023-03-11T12:16:33.925Z,1261
2023-03-11T12:17:46.014Z,1262
2023-03-11T12:18:58.896Z,1264
2023-03-11T12:20:01.065Z,1266
2023-03-11T12:21:13.910Z,1269
2023-03-11T12:22:26.000Z,1270
2023-03-11T12:23:38.888Z,1267
2023-03-11T12:24:41.128Z,1268
2023-03-11T12:25:53.898Z,1268
2023-03-11T12:27:05.980Z,1267
2023-03-11T12:28:08.918Z,1270
2023-03-11T12:29:20.993Z,1273
2023-03-11T12:30:33.932Z,1278
2023-03-11T12:31:46.008Z,1277
2023-03-11T12:32:48.964Z,1276
2023-03-11T12:34:01.031Z,1279
2023-03-11T12:35:13.907Z,1282
2023-03-11T12:36:25.963Z,1282
2023-03-11T12:37:28.909Z,1282
2023-03-11T12:38:40.934Z,1283
2023-03-11T12:39:53.902Z,1284
2023-03-11T12:41:05.904Z,1286
2023-03-11T12:42:08.927Z,1288
2023-03-11T12:43:20.955Z,1288
2023-03-11T12:44:33.926Z,1287
2023-03-11T12:45:36.051Z,1288
2023-03-11T12:46:48.937Z,1291
2023-03-11T12:48:01.086Z,1291
2023-03-11T12:49:13.923Z,1293
2023-03-11T12:50:16.112Z,1293
2023-03-11T12:51:28.922Z,1291
2023-03-11T12:52:40.946Z,1288
2023-03-11T12:53:53.935Z,1288
2023-03-11T12:54:56.039Z,1287
2023-03-11T12:56:08.914Z,1286
2023-03-11T12:57:20.891Z,1285
2023-03-11T12:58:33.942Z,1285
2023-03-11T12:59:36.122Z,1281
2023-03-11T13:00:48.900Z,1284
2023-03-11T13:02:00.957Z,1279
2023-03-11T13:03:14.002Z,1279
2023-03-11T13:04:16.277Z,1279
2023-03-11T13:05:29.536Z,1275
2023-03-11T13:06:41.538Z,1272
2023-03-11T13:07:44.411Z,1273
2023-03-11T13:08:56.399Z,1274
2023-03-11T13:10:08.950Z,1276
2023-03-11T13:11:20.939Z,1275
2023-03-11T13:12:23.953Z,1274
2023-03-11T13:13:35.967Z,1275
2023-03-11T13:14:48.921Z,1273
2023-03-11T13:16:01.006Z,1270
2023-03-11T13:17:03.941Z,1270
2023-03-11T13:18:15.933Z,1270
2023-03-11T13:19:28.447Z,1268
2023-03-11T13:20:40.369Z,1265
2023-03-11T13:21:43.445Z,1265
2023-03-11T13:22:55.428Z,1265
2023-03-11T13:24:07.954Z,1261
2023-03-11T13:25:19.939Z,1263
2023-03-11T13:26:22.948Z,1261
2023-03-11T13:27:34.945Z,1260
2023-03-11T13:29:07.444Z,1261
2023-03-11T13:29:49.923Z,1258
2023-03-11T13:31:01.896Z,1254
2023-03-11T13:32:14.549Z,1253
2023-03-11T13:33:26.691Z,1250
2023-03-11T13:34:39.440Z,1244
2023-03-11T13:35:41.630Z,1241
2023-03-11T13:36:54.434Z,1237
2023-03-11T13:38:06.406Z,1237
2023-03-11T13:39:09.454Z,1234
2023-03-11T13:40:21.428Z,1232
2023-03-11T13:41:33.938Z,1231
2023-03-11T13:42:45.916Z,1229
2023-03-11T13:43:48.935Z,1225
2023-03-11T13:45:20.605Z,1225
2023-03-11T13:46:23.421Z,1223
2023-03-11T13:47:25.479Z,1222
2023-03-11T13:48:28.467Z,1222
2023-03-11T13:49:40.416Z,1221
2023-03-11T13:50:52.967Z,1223
2023-03-11T13:52:04.900Z,1222
2023-03-11T13:53:07.948Z,1223
2023-03-11T13:54:19.901Z,1223
2023-03-11T13:55:32.533Z,1223
2023-03-11T13:56:34.753Z,1222
2023-03-11T13:57:47.475Z,1220
2023-03-11T13:58:59.398Z,1219
2023-03-11T14:00:11.965Z,1221
2023-03-11T14:01:33.688Z,1221
2023-03-11T14:02:26.947Z,1216
2023-03-11T14:03:39.020Z,1212
2023-03-11T14:04:51.940Z,1214
2023-03-11T14:05:54.016Z,1215
2023-03-11T14:07:06.516Z,1212
2023-03-11T14:08:18.556Z,1208
2023-03-11T14:09:31.451Z,1212
2023-03-11T14:10:33.576Z,1215
2023-03-11T14:11:46.461Z,1216
2023-03-11T14:12:58.383Z,1213
2023-03-11T14:14:10.942Z,1213
2023-03-11T14:15:12.956Z,1213
2023-03-11T14:16:25.507Z,1211
2023-03-11T14:17:37.444Z,1209
2023-03-11T14:18:49.949Z,1206
2023-03-11T14:19:51.955Z,1206
2023-03-11T14:21:04.455Z,1202
2023-03-11T14:22:16.361Z,1200
2023-03-11T14:23:28.964Z,1200
2023-03-11T14:24:31.056Z,1194
2023-03-11T14:25:43.988Z,1194
2023-03-11T14:26:56.027Z,1194
2023-03-11T14:28:09.437Z,1194
2023-03-11T14:29:11.513Z,1192
2023-03-11T14:30:24.462Z,1192
2023-03-11T14:31:36.483Z,1190
2023-03-11T14:32:39.493Z,1190
2023-03-11T14:33:51.480Z,1189
2023-03-11T14:35:03.929Z,1187
2023-03-11T14:36:16.043Z,1187
2023-03-11T14:37:18.988Z,1185
2023-03-11T14:38:30.971Z,1185
2023-03-11T14:39:43.953Z,1183
2023-03-11T14:40:55.868Z,1181
2023-03-11T14:41:58.977Z,1182
2023-03-11T14:43:10.951Z,1179
2023-03-11T14:44:23.941Z,1177
2023-03-11T14:45:35.873Z,1177
2023-03-11T14:46:38.991Z,1176
2023-03-11T14:47:50.996Z,1175
2023-03-11T14:49:03.981Z,1176
2023-03-11T14:50:06.070Z,1174
2023-03-11T14:51:18.953Z,1174
2023-03-11T14:52:30.977Z,1174
2023-03-11T14:53:43.964Z,1171
2023-03-11T14:54:46.124Z,1169
2023-03-11T14:55:58.999Z,1169
2023-03-11T14:57:11.006Z,1169
2023-03-11T14:58:23.966Z,1171
2023-03-11T14:59:26.143Z,1170
2023-03-11T15:00:38.948Z,1168
2023-03-11T15:01:51.803Z,1167
2023-03-11T15:02:55.129Z,1163
2023-03-11T15:04:07.244Z,1161
2023-03-11T15:05:19.986Z,1161
2023-03-11T15:06:32.070Z,1158
2023-03-11T15:07:34.976Z,1158
2023-03-11T15:08:46.967Z,1157
2023-03-11T15:09:59.959Z,1156
2023-03-11T15:11:12.027Z,1157
2023-03-11T15:12:14.961Z,1158
2023-03-11T15:13:27.015Z,1158
2023-03-11T15:14:39.976Z,1156
2023-03-11T15:15:42.188Z,1154
2023-03-11T15:16:55.147Z,1150
2023-03-11T15:18:07.345Z,1148
2023-03-11T15:19:20.501Z,1145
2023-03-11T15:20:22.704Z,1145
2023-03-11T15:21:35.480Z,1143
2023-03-11T15:22:47.647Z,1143
2023-03-11T15:24:00.481Z,1145
2023-03-11T15:25:02.769Z,1144
2023-03-11T15:26:15.457Z,1145
2023-03-11T15:27:27.609Z,1142
2023-03-11T15:28:40.515Z,1139
2023-03-11T15:29:42.815Z,1142
2023-03-11T15:30:56.008Z,1145
2023-03-11T15:32:10.287Z,1146
2023-03-11T15:33:14.466Z,1146
2023-03-11T15:34:26.563Z,1149
2023-03-11T15:35:39.469Z,1150
2023-03-11T15:36:41.711Z,1150
2023-03-11T15:37:54.469Z,1150
2023-03-11T15:39:06.612Z,1152
2023-03-11T15:40:19.451Z,1155
2023-03-11T15:41:21.734Z,1156
2023-03-11T15:42:34.506Z,1155
2023-03-11T15:43:46.684Z,1155
2023-03-11T15:44:59.562Z,1158
2023-03-11T15:46:02.015Z,1157
2023-03-11T15:47:15.005Z,1161
2023-03-11T15:48:27.173Z,1164
2023-03-11T15:49:39.971Z,1166